Date,TemperatureHighF,TemperatureAvgF,TemperatureLowF,DewpointHighF,DewpointAvgF,DewpointLowF,HumidityHigh,HumidityAvg,HumidityLow,PressureMaxIn,PressureMinIn,WindSpeedMaxMPH,WindSpeedAvgMPH,GustSpeedMaxMPH,PrecipitationSumIn
2013-1-1,12,0,-11,-100,-100,-100,0,0,100,0.00,40.00,0,-999,0,0.00
2013-1-2,12,4,-10,-100,-100,-100,0,0,100,0.00,40.00,0,-999,0,0.00
2013-1-3,-5,-15,-23,-100,-100,-100,0,0,100,0.00,40.00,0,-999,0,0.00
2013-1-24,38,33,29,-100,-100,-100,0,0,100,0.00,40.00,0,-999,0,0.00
2013-1-25,38,31,27,-100,-100,-100,0,0,100,0.00,40.00,0,-999,0,0.00
2013-1-26,39,32,29,-100,-100,-100,0,0,100,0.00,40.00,0,-999,0,0.00
2013-1-27,34,29,22,-100,-100,-100,0,0,100,0.00,40.00,0,-999,0,0.00
2013-1-28,33,23,11,-100,-100,-100,0,0,100,0.00,40.00,0,-999,0,0.00
2013-1-29,11,5,-3,-100,-100,-100,0,0,100,0.00,40.00,0,-999,0,0.01
2013-1-30,18,9,2,-100,-100,-100,0,0,100,0.00,40.00,0,-999,0,0.02
2013-1-31,23,20,18,-100,-100,-100,0,0,100,0.00,40.00,0,-999,0,0.02
2013-2-1,24,21,19,-100,-100,-100,0,0,100,0.00,40.00,0,-999,0,0.01
2013-2-2,30,20,6,-100,-100,-100,0,0,100,0.00,40.00,0,-999,0,0.01
2013-2-3,35,17,3,-100,-100,-100,0,0,100,0.00,40.00,0,-999,0,0.00
2013-2-4,31,18,4,-100,-100,-100,0,0,100,0.00,40.00,0,-999,0,0.00
2013-2-5,37,25,15,-100,-100,-100,0,0,100,0.00,40.00,0,-999,0,0.00
2013-2-6,33,25,15,-100,-100,-100,0,0,100,0.00,40.00,0,-999,0,0.00
2013-2-7,29,10,-6,-100,-100,-100,0,0,100,0.00,40.00,0,-999,0,0.00
2013-2-8,36,15,-9,-100,-100,-100,0,0,100,0.00,40.00,0,-999,0,0.00
2013-2-9,24,17,6,-100,-100,-100,0,0,100,0.00,40.00,0,-999,0,0.01
2013-2-10,17,10,-7,-100,-100,-100,0,0,100,0.00,40.00,0,-999,0,0.01
2013-2-11,19,1,-12,-100,-100,-100,0,0,100,0.00,40.00,0,-999,0,0.00
2013-2-12,19,0,-19,-100,-100,-100,0,0,100,0.00,40.00,0,-999,0,0.00
2013-2-13,23,15,7,-100,-100,-100,0,0,100,0.00,40.00,0,-999,0,0.00
2013-2-14,24,18,14,-100,-100,-100,0,0,100,0.00,40.00,0,-999,0,0.00
2013-2-15,18,15,12,-100,-100,-100,0,0,100,0.00,40.00,0,-999,0,0.01
2013-2-16,33,22,14,-100,-100,-100,0,0,100,0.00,40.00,0,-999,0,0.00
2013-2-17,36,24,10,-100,-100,-100,0,0,100,0.00,40.00,0,-999,0,0.00
2013-2-18,15,10,-7,-100,-100,-100,0,0,100,0.00,40.00,0,-999,0,0.00
2013-2-19,35,10,-13,-100,-100,-100,0,0,100,0.00,40.00,0,-999,0,0.00
2013-2-20,36,21,-1,-100,-100,-100,0,0,100,0.00,40.00,0,-999,0,0.00
2013-2-21,23,15,8,-100,-100,-100,0,0,100,0.00,40.00,0,-999,0,0.00
2013-2-22,20,11,-4,-100,-100,-100,0,0,100,0.00,40.00,0,-999,0,0.00
2013-2-23,26,14,7,-100,-100,-100,0,0,100,0.00,40.00,0,-999,0,0.00
2013-2-24,17,14,9,-100,-100,-100,0,0,100,0.00,40.00,0,-999,0,0.01
2013-2-25,23,10,-4,-100,-100,-100,0,0,100,0.00,40.00,0,-999,0,0.00
2013-2-26,18,12,4,-100,-100,-100,0,0,100,0.00,40.00,0,-999,0,0.01
2013-2-27,20,5,-9,-100,-100,-100,0,0,100,0.00,40.00,0,-999,0,0.01
2013-2-28,22,6,-12,-100,-100,-100,0,0,100,0.00,40.00,0,-999,0,0.00
2013-3-1,27,22,15,-100,-100,-100,0,0,100,0.00,40.00,0,-999,0,0.00
2013-3-2,37,29,24,-100,-100,-100,0,0,100,0.00,40.00,0,-999,0,0.01
2013-3-3,40,31,20,-100,-100,-100,0,0,100,0.00,40.00,0,-999,0,0.01
2013-3-4,27,18,-1,-100,-100,-100,0,0,100,0.00,40.00,0,-999,0,0.03
2013-3-5,36,13,-7,-100,-100,-100,0,0,100,0.00,40.00,0,-999,0,0.00
2013-3-6,44,24,-1,-100,-100,-100,0,0,100,0.00,40.00,0,-999,0,0.00
2013-3-7,44,31,17,-100,-100,-100,0,0,100,0.00,40.00,0,-999,0,0.00
2013-3-8,42,25,6,-100,-100,-100,0,0,100,0.00,40.00,0,-999,0,0.00
2013-3-9,27,22,13,-100,-100,-100,0,0,100,0.00,40.00,0,-999,0,0.02
2013-3-10,30,16,-5,-100,-100,-100,0,0,100,0.00,40.00,0,-999,0,0.01
2013-3-11,30,22,18,-100,-100,-100,0,0,100,0.00,40.00,0,-999,0,0.02
2013-3-12,31,26,21,-100,-100,-100,0,0,100,0.00,40.00,0,-999,0,0.02
2013-3-13,42,32,26,-100,-100,-100,0,0,100,0.00,40.00,0,-999,0,0.00
2013-3-14,48,36,26,-100,-100,-100,0,0,100,0.00,40.00,0,-999,0,0.00
2013-3-15,50,39,27,-100,-100,-100,0,0,100,0.00,40.00,0,-999,0,0.00
2013-3-16,40,32,22,-100,-100,-100,0,0,100,0.00,40.00,0,-999,0,0.00
2013-3-17,31,21,13,-100,-100,-100,0,0,100,0.00,40.00,0,-999,0,0.01
2013-3-18,25,17,8,-100,-100,-100,0,0,100,0.00,40.00,0,-999,0,0.01
2013-3-19,31,21,6,-100,-100,-100,0,0,100,0.00,40.00,0,-999,0,0.01
2013-3-20,42,24,-2,-100,-100,-100,0,0,100,0.00,40.00,0,-999,0,0.00
2013-3-21,36,26,8,-100,-100,-100,0,0,100,0.00,40.00,0,-999,0,0.01
2013-3-22,25,15,1,-100,-100,-100,0,0,100,0.00,40.00,0,-999,0,0.01
2013-3-23,13,9,2,-100,-100,-100,0,0,100,0.00,40.00,0,-999,0,0.01
2013-3-24,12,1,-19,-100,-100,-100,0,0,100,0.00,40.00,0,-999,0,0.00
2013-3-25,26,10,-8,-100,-100,-100,0,0,100,0.00,40.00,0,-999,0,0.00
2013-3-26,36,20,-11,-100,-100,-100,0,0,100,0.00,40.00,0,-999,0,0.00
2013-3-27,42,31,24,-100,-100,-100,0,0,100,0.00,40.00,0,-999,0,0.01
2013-3-28,47,29,9,-100,-100,-100,0,0,100,0.00,40.00,0,-999,0,0.00
2013-3-29,47,33,23,-100,-100,-100,0,0,100,0.00,40.00,0,-999,0,0.00
2013-3-30,39,32,22,-100,-100,-100,0,0,100,0.00,40.00,0,-999,0,0.01
2013-3-31,47,29,10,-100,-100,-100,0,0,100,0.00,40.00,0,-999,0,0.01
2013-4-1,45,30,12,-100,-100,-100,0,0,100,0.00,40.00,0,-999,0,0.01
2013-4-2,40,29,15,-100,-100,-100,0,0,100,0.00,40.00,0,-999,0,0.01
2013-4-3,45,29,7,-100,-100,-100,0,0,100,0.00,40.00,0,-999,0,0.00
2013-4-4,48,35,26,-100,-100,-100,0,0,100,0.00,40.00,0,-999,0,0.01
2013-4-5,48,36,27,-100,-100,-100,0,0,100,0.00,40.00,0,-999,0,0.00
2013-4-6,45,32,19,-100,-100,-100,0,0,100,0.00,40.00,0,-999,0,0.00
2013-4-7,40,32,27,-100,-100,-100,0,0,100,0.00,40.00,0,-999,0,0.01
2013-4-8,46,35,22,-100,-100,-100,0,0,100,0.00,40.00,0,-999,0,0.00
2013-4-9,21,13,4,-100,-100,-100,0,0,100,0.00,40.00,0,-999,0,0.00
2013-4-10,26,11,-6,-100,-100,-100,0,0,100,0.00,40.00,0,-999,0,0.00
2013-4-11,35,28,16,-100,-100,-100,0,0,100,0.00,40.00,0,-999,0,0.01
2013-4-12,38,30,20,-100,-100,-100,0,0,100,0.00,40.00,0,-999,0,0.01
2013-4-13,43,31,17,-100,-100,-100,0,0,100,0.00,40.00,0,-999,0,0.02
2013-4-14,24,19,13,-100,-100,-100,0,0,100,0.00,40.00,0,-999,0,0.03
2013-4-15,28,22,17,-100,-100,-100,0,0,100,0.00,40.00,0,-999,0,0.04
2013-4-16,42,26,16,-100,-100,-100,0,0,100,0.00,40.00,0,-999,0,0.04
2013-4-17,22,16,4,-100,-100,-100,0,0,100,0.00,40.00,0,-999,0,0.02
2013-4-18,21,6,-14,-100,-100,-100,0,0,100,0.00,40.00,0,-999,0,0.01
2013-4-19,31,22,7,-100,-100,-100,0,0,100,0.00,40.00,0,-999,0,0.01
2013-4-20,41,29,23,-100,-100,-100,0,0,100,0.00,40.00,0,-999,0,0.01
2013-4-21,39,31,25,-100,-100,-100,0,0,100,0.00,40.00,0,-999,0,0.01
2013-4-22,34,26,13,-100,-100,-100,0,0,100,0.00,40.00,0,-999,0,0.02
2013-4-23,27,17,9,-100,-100,-100,0,0,100,0.00,40.00,0,-999,0,0.01
2013-4-24,35,28,11,-100,-100,-100,0,0,100,0.00,40.00,0,-999,0,0.00
2013-4-25,48,26,-4,-100,-100,-100,0,0,100,0.00,40.00,0,-999,0,0.00
2013-4-26,51,34,8,-100,-100,-100,0,0,100,0.00,40.00,0,-999,0,0.00
2013-4-27,51,33,11,-100,-100,-100,0,0,100,0.00,40.00,0,-999,0,0.00
2013-4-28,54,37,22,-100,-100,-100,0,0,100,0.00,40.00,0,-999,0,0.00
2013-4-29,54,44,30,-100,-100,-100,0,0,100,0.00,40.00,0,-999,0,0.00
2013-4-30,50,41,30,-100,-100,-100,0,0,100,0.00,40.00,0,-999,0,0.02
2013-5-1,28,22,7,-100,-100,-100,0,0,100,0.00,40.00,0,-999,0,0.07
2013-5-2,32,16,-8,-100,-100,-100,0,0,100,0.00,40.00,0,-999,0,0.01
2013-5-3,46,27,-2,-100,-100,-100,0,0,100,0.00,40.00,0,-999,0,0.00
2013-5-4,46,31,18,-100,-100,-100,0,0,100,0.00,40.00,0,-999,0,0.00
2013-5-5,50,32,17,-100,-100,-100,0,0,100,0.00,40.00,0,-999,0,0.00
2013-5-6,47,37,22,-100,-100,-100,0,0,100,0.00,40.00,0,-999,0,0.01
2013-5-7,49,36,29,-100,-100,-100,0,0,100,0.00,40.00,0,-999,0,0.00
2013-5-8,43,34,24,-100,-100,-100,0,0,100,0.00,40.00,0,-999,0,0.02
2013-5-9,42,35,30,-100,-100,-100,0,0,100,0.00,40.00,0,-999,0,0.02
2013-5-10,48,36,21,-100,-100,-100,0,0,100,0.00,40.00,0,-999,0,0.00
2013-5-11,51,35,20,-100,-100,-100,0,0,100,0.00,40.00,0,-999,0,0.00
2013-5-12,57,42,28,-100,-100,-100,0,0,100,0.00,40.00,0,-999,0,0.00
2013-5-13,63,46,31,-100,-100,-100,0,0,100,0.00,40.00,0,-999,0,0.00
2013-5-14,64,45,29,-100,-100,-100,0,0,100,0.00,40.00,0,-999,0,0.00
2013-5-15,53,40,32,-100,-100,-100,0,0,100,0.00,40.00,0,-999,0,0.00
2013-5-16,57,43,33,-100,-100,-100,0,0,100,0.00,40.00,0,-999,0,0.01
2013-5-17,60,42,29,-100,-100,-100,0,0,100,0.00,40.00,0,-999,0,0.00
2013-5-18,49,36,27,-100,-100,-100,0,0,100,0.00,40.00,0,-999,0,0.00
2013-5-19,42,37,34,-100,-100,-100,0,0,100,0.00,40.00,0,-999,0,0.01
2013-5-20,43,37,33,-100,-100,-100,0,0,100,0.00,40.00,0,-999,0,0.01
2013-5-21,48,39,28,-100,-100,-100,0,0,100,0.00,40.00,0,-999,0,0.00
2013-5-22,56,43,30,-100,-100,-100,0,0,100,0.00,40.00,0,-999,0,0.01
2013-5-23,60,46,34,-100,-100,-100,0,0,100,0.00,40.00,0,-999,0,0.00
2013-5-24,61,44,29,-100,-100,-100,0,0,100,0.00,40.00,0,-999,0,0.00
2013-5-25,61,44,27,-100,-100,-100,0,0,100,0.00,40.00,0,-999,0,0.00
2013-5-26,60,44,28,-100,-100,-100,0,0,100,0.00,40.00,0,-999,0,0.00
2013-5-27,58,42,30,-100,-100,-100,0,0,100,0.00,40.00,0,-999,0,0.00
2013-5-28,57,43,27,-100,-100,-100,0,0,100,0.00,40.00,0,-999,0,0.00
2013-5-29,47,38,31,-100,-100,-100,0,0,100,0.00,40.00,0,-999,0,0.01
2013-5-30,44,37,33,-100,-100,-100,0,0,100,0.00,40.00,0,-999,0,0.01
2013-5-31,47,38,31,-100,-100,-100,0,0,100,0.00,40.00,0,-999,0,0.00
2013-6-1,50,40,31,-100,-100,-100,0,0,100,0.00,40.00,0,-999,0,0.00
2013-6-2,63,46,27,-100,-100,-100,0,0,100,0.00,40.00,0,-999,0,0.01
2013-6-3,62,47,31,-100,-100,-100,0,0,100,0.00,40.00,0,-999,0,0.00
2013-6-4,61,45,26,-100,-100,-100,0,0,100,0.00,40.00,0,-999,0,0.00
2013-6-5,57,45,30,-100,-100,-100,0,0,100,0.00,40.00,0,-999,0,0.00
2013-6-6,60,44,29,-100,-100,-100,0,0,100,0.00,40.00,0,-999,0,0.00
2013-6-7,60,46,33,-100,-100,-100,0,0,100,0.00,40.00,0,-999,0,0.00
2013-6-8,58,50,37,-100,-100,-100,0,0,100,0.00,40.00,0,-999,0,0.00
2013-6-9,68,50,30,-100,-100,-100,0,0,100,0.00,40.00,0,-999,0,0.00
2013-6-10,72,52,35,-100,-100,-100,0,0,100,0.00,40.00,0,-999,0,0.00
2013-6-11,71,56,34,-100,-100,-100,0,0,100,0.00,40.00,0,-999,0,0.00
2013-6-12,72,57,33,-100,-100,-100,0,0,100,0.00,40.00,0,-999,0,0.00
2013-6-13,71,58,42,-100,-100,-100,0,0,100,0.00,40.00,0,-999,0,0.00
2013-6-14,70,56,40,-100,-100,-100,0,0,100,0.00,40.00,0,-999,0,0.00
2013-6-15,64,49,33,-100,-100,-100,0,0,100,0.00,40.00,0,-999,0,0.00
2013-6-16,61,49,34,-100,-100,-100,0,0,100,0.00,40.00,0,-999,0,0.00
2013-6-17,64,47,33,-100,-100,-100,0,0,100,0.00,40.00,0,-999,0,0.00
2013-6-18,64,51,33,-100,-100,-100,0,0,100,0.00,40.00,0,-999,0,0.00
2013-6-19,71,54,33,-100,-100,-100,0,0,100,0.00,40.00,0,-999,0,0.00
2013-6-20,69,51,33,-100,-100,-100,0,0,100,0.00,40.00,0,-999,0,0.00
2013-6-22,69,59,40,-100,-100,-100,0,0,100,0.00,40.00,0,-999,0,0.00
2013-6-23,66,51,30,-100,-100,-100,0,0,100,0.00,40.00,0,-999,0,0.00
2013-6-24,67,54,33,-100,-100,-100,0,0,100,0.00,40.00,0,-999,0,0.00
2013-6-25,63,53,43,-100,-100,-100,0,0,100,0.00,40.00,0,-999,0,0.00
2013-6-26,71,55,36,-100,-100,-100,0,0,100,0.00,40.00,0,-999,0,0.00
2013-6-27,74,64,43,-100,-100,-100,0,0,100,0.00,40.00,0,-999,0,0.00
2013-6-28,76,66,43,-100,-100,-100,0,0,100,0.00,40.00,0,-999,0,0.00
2013-6-29,69,56,40,-100,-100,-100,0,0,100,0.00,40.00,0,-999,0,0.00
2013-6-30,63,53,42,-100,-100,-100,0,0,100,0.00,40.00,0,-999,0,0.00
2013-7-1,64,49,34,-100,-100,-100,0,0,100,0.00,40.00,0,-999,0,0.00
2013-7-2,66,50,33,-100,-100,-100,0,0,100,0.00,40.00,0,-999,0,0.00
2013-7-3,68,54,33,-100,-100,-100,0,0,100,0.00,40.00,0,-999,0,0.00
2013-7-4,67,53,36,-100,-100,-100,0,0,100,0.00,40.00,0,-999,0,0.01
2013-7-5,65,55,42,-100,-100,-100,0,0,100,0.00,40.00,0,-999,0,0.00
2013-7-6,68,54,44,-100,-100,-100,0,0,100,0.00,40.00,0,-999,0,0.00
2013-7-7,69,54,42,-100,-100,-100,0,0,100,0.00,40.00,0,-999,0,0.01
2013-7-8,69,53,44,-100,-100,-100,0,0,100,0.00,40.00,0,-999,0,0.00
2013-7-9,72,55,40,-100,-100,-100,0,0,100,0.00,40.00,0,-999,0,0.00
2013-7-10,73,57,40,-100,-100,-100,0,0,100,0.00,40.00,0,-999,0,0.00
2013-7-11,78,59,42,-100,-100,-100,0,0,100,0.00,40.00,0,-999,0,0.00
2013-7-12,70,57,51,-100,-100,-100,0,0,100,0.00,40.00,0,-999,0,0.01
2013-7-13,69,56,47,-100,-100,-100,0,0,100,0.00,40.00,0,-999,0,0.01
2013-7-14,63,51,41,-100,-100,-100,0,0,100,0.00,40.00,0,-999,0,0.04
2013-7-15,66,49,41,-100,-100,-100,0,0,100,0.00,40.00,0,-999,0,0.02
2013-7-16,67,52,34,-100,-100,-100,0,0,100,0.00,40.00,0,-999,0,0.00
2013-7-17,70,53,38,-100,-100,-100,0,0,100,0.00,40.00,0,-999,0,0.00
2013-7-18,68,55,42,-100,-100,-100,0,0,100,0.00,40.00,0,-999,0,0.01
2013-7-19,66,54,43,-100,-100,-100,0,0,100,0.00,40.00,0,-999,0,0.01
2013-7-20,73,52,38,-100,-100,-100,0,0,100,0.00,40.00,0,-999,0,0.00
2013-7-21,74,61,38,-100,-100,-100,0,0,100,0.00,40.00,0,-999,0,0.00
2013-7-22,72,62,42,-100,-100,-100,0,0,100,0.00,40.00,0,-999,0,0.00
2013-7-23,72,64,46,-100,-100,-100,0,0,100,0.00,40.00,0,-999,0,0.96
2013-7-24,69,55,38,-100,-100,-100,0,0,100,0.00,40.00,0,-999,0,0.96
2013-7-25,60,52,47,-100,-100,-100,0,0,100,0.00,40.00,0,-999,0,0.01
2013-7-26,67,53,36,-100,-100,-100,0,0,100,0.00,40.00,0,-999,0,0.00
2013-7-27,69,55,37,-100,-100,-100,0,0,100,0.00,40.00,0,-999,0,0.00
2013-7-28,57,50,46,-100,-100,-100,0,0,100,0.00,40.00,0,-999,0,0.02
2013-7-29,56,48,42,-100,-100,-100,0,0,100,0.00,40.00,0,-999,0,0.01
2013-7-30,66,54,43,-100,-100,-100,0,0,100,0.00,40.00,0,-999,0,0.00
2013-7-31,70,54,38,-100,-100,-100,0,0,100,0.00,40.00,0,-999,0,0.00
2013-8-1,67,54,38,-100,-100,-100,0,0,100,0.00,40.00,0,-999,0,0.00
2013-8-2,69,57,41,-100,-100,-100,0,0,100,0.00,40.00,0,-999,0,0.00
2013-8-3,66,54,41,-100,-100,-100,0,0,100,0.00,40.00,0,-999,0,0.00
2013-8-4,67,53,39,-100,-100,-100,0,0,100,0.00,40.00,0,-999,0,0.01
2013-8-5,64,48,38,-100,-100,-100,0,0,100,0.00,40.00,0,-999,0,0.01
2013-8-6,61,49,36,-100,-100,-100,0,0,100,0.00,40.00,0,-999,0,0.01
2013-8-7,59,46,36,-100,-100,-100,0,0,100,0.00,40.00,0,-999,0,0.00
2013-8-8,61,44,34,-100,-100,-100,0,0,100,0.00,40.00,0,-999,0,0.00
2013-8-9,57,46,35,-100,-100,-100,0,0,100,0.00,40.00,0,-999,0,0.01
2013-8-10,66,50,33,-100,-100,-100,0,0,100,0.00,40.00,0,-999,0,0.00
2013-8-11,60,48,41,-100,-100,-100,0,0,100,0.00,40.00,0,-999,0,0.00
2013-8-12,60,48,34,-100,-100,-100,0,0,100,0.00,40.00,0,-999,0,0.01
2013-8-13,53,45,36,-100,-100,-100,0,0,100,0.00,40.00,0,-999,0,0.01
2013-8-14,62,46,33,-100,-100,-100,0,0,100,0.00,40.00,0,-999,0,0.01
2013-8-15,67,56,36,-100,-100,-100,0,0,100,0.00,40.00,0,-999,0,0.00
2013-8-16,70,66,62,-100,-100,-100,0,0,100,0.00,40.00,0,-999,0,0.00
2013-8-17,70,63,41,-100,-100,-100,0,0,100,0.00,40.00,0,-999,0,0.00
2013-8-18,69,61,50,-100,-100,-100,0,0,100,0.00,40.00,0,-999,0,0.00
2013-8-19,73,58,39,-100,-100,-100,0,0,100,0.00,40.00,0,-999,0,0.00
2013-8-20,71,63,52,-100,-100,-100,0,0,100,0.00,40.00,0,-999,0,0.00
2013-8-21,70,56,46,-100,-100,-100,0,0,100,0.00,40.00,0,-999,0,0.00
2013-8-22,59,52,42,-100,-100,-100,0,0,100,0.00,40.00,0,-999,0,0.02
2013-8-23,69,54,42,-100,-100,-100,0,0,100,0.00,40.00,0,-999,0,0.01
2013-8-24,65,53,37,-100,-100,-100,0,0,100,0.00,40.00,0,-999,0,0.00
2013-8-25,62,52,41,-100,-100,-100,0,0,100,0.00,40.00,0,-999,0,0.01
2013-8-26,69,56,46,-100,-100,-100,0,0,100,0.00,40.00,0,-999,0,0.00
2013-8-27,69,54,41,-100,-100,-100,0,0,100,0.00,40.00,0,-999,0,0.00
2013-8-28,68,58,47,-100,-100,-100,0,0,100,0.00,40.00,0,-999,0,0.01
2013-8-29,66,51,38,-100,-100,-100,0,0,100,0.00,40.00,0,-999,0,0.01
2013-8-30,70,58,40,-100,-100,-100,0,0,100,0.00,40.00,0,-999,0,0.00
2013-8-31,63,48,39,-100,-100,-100,0,0,100,0.00,40.00,0,-999,0,0.02
2013-9-1,67,50,39,-100,-100,-100,0,0,100,0.00,40.00,0,-999,0,0.01
2013-9-2,67,53,42,-100,-100,-100,0,0,100,0.00,40.00,0,-999,0,0.01
2013-9-3,70,55,42,-100,-100,-100,0,0,100,0.00,40.00,0,-999,0,0.00
2013-9-4,67,55,41,-100,-100,-100,0,0,100,0.00,40.00,0,-999,0,0.00
2013-9-5,71,53,44,-100,-100,-100,0,0,100,0.00,40.00,0,-999,0,0.01
2013-9-6,62,52,46,-100,-100,-100,0,0,100,0.00,40.00,0,-999,0,0.01
2013-9-7,65,52,45,-100,-100,-100,0,0,100,0.00,40.00,0,-999,0,0.01
2013-9-8,67,52,38,-100,-100,-100,0,0,100,0.00,40.00,0,-999,0,0.02
2013-9-9,55,50,46,-100,-100,-100,0,0,100,0.00,40.00,0,-999,0,0.01
2013-9-10,56,49,45,-100,-100,-100,0,0,100,0.00,40.00,0,-999,0,0.01
2013-9-11,54,51,48,-100,-100,-100,0,0,100,0.00,40.00,0,-999,0,0.00
2013-9-12,57,49,45,-100,-100,-100,0,0,100,0.00,40.00,0,-999,0,0.06
2013-9-13,56,48,39,-100,-100,-100,0,0,100,0.00,40.00,0,-999,0,0.01
2013-9-14,56,46,37,-100,-100,-100,0,0,100,0.00,40.00,0,-999,0,0.00
2013-9-15,48,45,41,-100,-100,-100,0,0,100,0.00,40.00,0,-999,0,0.01
2013-9-16,58,44,35,-100,-100,-100,0,0,100,0.00,40.00,0,-999,0,0.00
2013-9-17,63,53,41,-100,-100,-100,0,0,100,0.00,40.00,0,-999,0,0.00
2013-9-18,44,42,40,-100,-100,-100,0,0,100,0.00,40.00,0,-999,0,0.02
2013-9-19,50,40,29,-100,-100,-100,0,0,100,0.00,40.00,0,-999,0,0.01
2013-9-20,60,42,23,-100,-100,-100,0,0,100,0.00,40.00,0,-999,0,0.00
2013-9-21,62,56,42,-100,-100,-100,0,0,100,0.00,40.00,0,-999,0,0.00
2013-9-22,54,44,36,-100,-100,-100,0,0,100,0.00,40.00,0,-999,0,0.01
2013-9-23,38,35,34,-100,-100,-100,0,0,100,0.00,40.00,0,-999,0,0.02
2013-9-24,55,41,31,-100,-100,-100,0,0,100,0.00,40.00,0,-999,0,0.00
2013-9-25,62,56,47,-100,-100,-100,0,0,100,0.00,40.00,0,-999,0,0.00
2013-9-26,60,49,35,-100,-100,-100,0,0,100,0.00,40.00,0,-999,0,0.00
2013-9-27,36,32,26,-100,-100,-100,0,0,100,0.00,40.00,0,-999,0,0.01
2013-10-2,60,48,29,-100,-100,-100,0,0,100,0.00,40.00,0,-999,0,0.00
2013-10-3,55,46,33,-100,-100,-100,0,0,100,0.00,40.00,0,-999,0,0.00
2013-10-4,33,24,18,-100,-100,-100,0,0,100,0.00,40.00,0,-999,0,0.02
2013-10-5,36,26,18,-100,-100,-100,0,0,100,0.00,40.00,0,-999,0,0.01
2013-10-6,47,32,18,-100,-100,-100,0,0,100,0.00,40.00,0,-999,0,0.00
2013-10-7,56,47,25,-100,-100,-100,0,0,100,0.00,40.00,0,-999,0,0.00
2013-10-8,56,46,34,-100,-100,-100,0,0,100,0.00,40.00,0,-999,0,0.00
2013-10-9,49,38,28,-100,-100,-100,0,0,100,0.00,40.00,0,-999,0,0.00
2013-10-10,43,36,29,-100,-100,-100,0,0,100,0.00,40.00,0,-999,0,0.00
2013-10-11,32,31,29,-100,-100,-100,0,0,100,0.00,40.00,0,-999,0,0.02
2013-10-12,40,31,24,-100,-100,-100,0,0,100,0.00,40.00,0,-999,0,0.01
2013-10-13,50,44,34,-100,-100,-100,0,0,100,0.00,40.00,0,-999,0,0.00
2013-10-21,30,29,28,-100,-100,-100,0,0,100,0.00,40.00,0,-999,0,0.00
2013-10-22,46,30,22,-100,-100,-100,0,0,100,0.00,40.00,0,-999,0,0.00
2013-10-24,51,42,31,-100,-100,-100,0,0,100,0.00,40.00,0,-999,0,0.00
2013-10-25,30,30,30,-100,-100,-100,0,0,100,0.00,40.00,0,-999,0,0.00
2013-10-26,43,32,23,-100,-100,-100,0,0,100,0.00,40.00,0,-999,0,0.00
2013-10-27,44,37,30,-100,-100,-100,0,0,100,0.00,40.00,0,-999,0,0.00
2013-11-13,40,38,37,-100,-100,-100,0,0,100,0.00,40.00,0,-999,0,0.00
2013-11-14,36,34,31,-100,-100,-100,0,0,100,0.00,40.00,0,-999,0,0.00
2013-11-15,33,32,31,-100,-100,-100,0,0,100,0.00,40.00,0,-999,0,0.00
2013-11-16,24,23,23,-100,-100,-100,0,0,100,0.00,40.00,0,-999,0,0.00
2013-11-17,26,26,26,-100,-100,-100,0,0,100,0.00,40.00,0,-999,0,0.00
2013-11-18,34,26,20,-100,-100,-100,0,0,100,0.00,40.00,0,-999,0,0.00
2013-11-19,36,32,30,-100,-100,-100,0,0,100,0.00,40.00,0,-999,0,0.01
2013-11-20,30,28,27,-100,-100,-100,0,0,100,0.00,40.00,0,-999,0,0.01
2013-11-21,26,17,9,-100,-100,-100,0,0,100,0.00,40.00,0,-999,0,0.01
2013-11-22,18,11,7,-100,-100,-100,0,0,100,0.00,40.00,0,-999,0,0.00
2013-11-23,33,24,10,-100,-100,-100,0,0,100,0.00,40.00,0,-999,0,0.00
2013-11-24,34,29,22,-100,-100,-100,0,0,100,0.00,40.00,0,-999,0,0.00
2013-12-2,29,28,26,-100,-100,-100,0,0,100,0.00,40.00,0,-999,0,0.01
2013-12-3,28,23,13,-100,-100,-100,0,0,100,0.00,40.00,0,-999,0,0.00
2013-12-4,8,0,-6,-100,-100,-100,0,0,100,0.00,40.00,0,-999,0,0.02
2013-12-5,8,5,-1,-100,-100,-100,0,0,100,0.00,40.00,0,-999,0,0.00
2013-12-6,3,-7,-15,-100,-100,-100,0,0,100,0.00,40.00,0,-999,0,0.00
2013-12-7,13,8,3,-100,-100,-100,0,0,100,0.00,40.00,0,-999,0,0.00
2013-12-8,7,3,-1,-100,-100,-100,0,0,100,0.00,40.00,0,-999,0,0.00
2013-12-9,3,-2,-5,-100,-100,-100,0,0,100,0.00,40.00,0,-999,0,0.00
2013-12-10,14,10,3,-100,-100,-100,0,0,100,0.00,40.00,0,-999,0,0.00
2013-12-13,28,24,16,-100,-100,-100,0,0,100,0.00,40.00,0,-999,0,0.00
2013-12-14,16,13,8,-100,-100,-100,0,0,100,0.00,40.00,0,-999,0,0.00
2013-12-15,29,24,18,-100,-100,-100,0,0,100,0.00,40.00,0,-999,0,0.00
2013-12-16,34,28,22,-100,-100,-100,0,0,100,0.00,40.00,0,-999,0,0.00
2013-12-17,31,27,25,-100,-100,-100,0,0,100,0.00,40.00,0,-999,0,0.00
2013-12-18,37,34,30,-100,-100,-100,0,0,100,0.00,40.00,0,-999,0,0.00
2013-12-19,34,29,25,-100,-100,-100,0,0,100,0.00,40.00,0,-999,0,0.00
2013-12-20,24,23,21,-100,-100,-100,0,0,100,0.00,40.00,0,-999,0,0.00
2013-12-21,18,14,9,-100,-100,-100,0,0,100,0.00,40.00,0,-999,0,0.00
2013-12-22,16,14,9,-100,-100,-100,0,0,100,0.00,40.00,0,-999,0,0.00
2013-12-23,23,18,16,-100,-100,-100,0,0,100,0.00,40.00,0,-999,0,0.01
2013-12-24,26,23,18,-100,-100,-100,0,0,100,0.00,40.00,0,-999,0,0.02
2013-12-25,17,10,5,-100,-100,-100,0,0,100,0.00,40.00,0,-999,0,0.00
2013-12-26,26,21,11,-100,-100,-100,0,0,100,0.00,40.00,0,-999,0,0.00
2013-12-28,26,26,26,-100,-100,-100,0,0,100,0.00,40.00,0,-999,0,0.00
2013-12-29,12,12,12,-100,-100,-100,0,0,100,0.00,40.00,0,-999,0,0.00
2013-12-30,19,16,14,-100,-100,-100,0,0,100,0.00,40.00,0,-999,0,0.00
2013-12-31,27,24,20,-100,-100,-100,0,0,100,0.00,40.00,0,-999,0,0.00
2014-1-1,26,20,15,-100,-100,-100,0,0,100,0.00,40.00,0,-999,0,0.03
2014-1-2,29,20,13,-100,-100,-100,0,0,100,0.00,40.00,0,-999,0,0.00